sensor_id;sensor_type;location;lat;lon;timestamp;temperature;humidity
11122;DHT22;5615;49.304;10.576;2023-04-03T00:01:16;2.80;99.90
11122;DHT22;5615;49.304;10.576;2023-04-03T00:03:43;2.80;99.90
11122;DHT22;5615;49.304;10.576;2023-04-03T00:06:11;2.70;99.90
11122;DHT22;5615;49.304;10.576;2023-04-03T00:08:39;2.70;99.90
11122;DHT22;5615;49.304;10.576;2023-04-03T00:11:06;2.70;99.90
11122;DHT22;5615;49.304;10.576;2023-04-03T00:13:33;2.70;99.90
11122;DHT22;5615;49.304;10.576;2023-04-03T00:16:00;2.70;99.90
11122;DHT22;5615;49.304;10.576;2023-04-03T00:18:27;2.60;99.90
11122;DHT22;5615;49.304;10.576;2023-04-03T00:20:53;2.60;99.90
11122;DHT22;5615;49.304;10.576;2023-04-03T00:23:21;2.60;99.90
11122;DHT22;5615;49.304;10.576;2023-04-03T00:25:49;2.70;99.90
11122;DHT22;5615;49.304;10.576;2023-04-03T00:28:16;2.60;99.90
11122;DHT22;5615;49.304;10.576;2023-04-03T00:30:42;2.60;99.90
11122;DHT22;5615;49.304;10.576;2023-04-03T00:33:10;2.60;99.90
11122;DHT22;5615;49.304;10.576;2023-04-03T00:35:37;2.60;99.90
11122;DHT22;5615;49.304;10.576;2023-04-03T00:38:04;2.60;99.90
11122;DHT22;5615;49.304;10.576;2023-04-03T00:40:35;2.50;99.90
11122;DHT22;5615;49.304;10.576;2023-04-03T00:43:08;2.50;99.90
11122;DHT22;5615;49.304;10.576;2023-04-03T00:45:38;2.50;99.90
11122;DHT22;5615;49.304;10.576;2023-04-03T00:48:07;2.50;99.90
11122;DHT22;5615;49.304;10.576;2023-04-03T00:50:37;2.50;99.90
11122;DHT22;5615;49.304;10.576;2023-04-03T00:53:05;2.50;99.90
11122;DHT22;5615;49.304;10.576;2023-04-03T00:55:34;2.50;99.90
11122;DHT22;5615;49.304;10.576;2023-04-03T00:58:02;2.40;99.90
11122;DHT22;5615;49.304;10.576;2023-04-03T01:00:29;2.40;99.90
11122;DHT22;5615;49.304;10.576;2023-04-03T01:02:55;2.40;99.90
11122;DHT22;5615;49.304;10.576;2023-04-03T01:05:22;2.40;99.90
11122;DHT22;5615;49.304;10.576;2023-04-03T01:07:50;2.30;99.90
11122;DHT22;5615;49.304;10.576;2023-04-03T01:10:17;2.30;99.90
11122;DHT22;5615;49.304;10.576;2023-04-03T01:12:49;2.30;99.90
11122;DHT22;5615;49.304;10.576;2023-04-03T01:15:19;2.20;99.90
11122;DHT22;5615;49.304;10.576;2023-04-03T01:17:47;2.20;99.90
11122;DHT22;5615;49.304;10.576;2023-04-03T01:20:34;2.20;99.90
11122;DHT22;5615;49.304;10.576;2023-04-03T01:23:16;2.20;99.90
11122;DHT22;5615;49.304;10.576;2023-04-03T01:25:49;2.10;99.90
11122;DHT22;5615;49.304;10.576;2023-04-03T01:28:19;2.10;99.90
11122;DHT22;5615;49.304;10.576;2023-04-03T01:30:50;2.10;99.90
11122;DHT22;5615;49.304;10.576;2023-04-03T01:33:19;2.10;99.90
11122;DHT22;5615;49.304;10.576;2023-04-03T01:35:46;2.10;99.90
11122;DHT22;5615;49.304;10.576;2023-04-03T01:38:12;2.00;99.90
11122;DHT22;5615;49.304;10.576;2023-04-03T01:40:39;2.00;99.90
11122;DHT22;5615;49.304;10.576;2023-04-03T01:43:06;2.00;99.90
11122;DHT22;5615;49.304;10.576;2023-04-03T01:45:32;2.00;99.90
11122;DHT22;5615;49.304;10.576;2023-04-03T01:47:59;1.90;99.90
11122;DHT22;5615;49.304;10.576;2023-04-03T01:50:27;1.90;99.90
11122;DHT22;5615;49.304;10.576;2023-04-03T01:52:53;2.00;99.90
11122;DHT22;5615;49.304;10.576;2023-04-03T01:55:20;1.90;99.90
11122;DHT22;5615;49.304;10.576;2023-04-03T01:57:47;1.90;99.90
11122;DHT22;5615;49.304;10.576;2023-04-03T02:00:14;1.90;99.90
11122;DHT22;5615;49.304;10.576;2023-04-03T02:02:41;1.90;99.90
11122;DHT22;5615;49.304;10.576;2023-04-03T02:05:08;1.80;99.90
11122;DHT22;5615;49.304;10.576;2023-04-03T02:07:37;1.80;99.90
11122;DHT22;5615;49.304;10.576;2023-04-03T02:10:04;1.80;99.90
11122;DHT22;5615;49.304;10.576;2023-04-03T02:12:31;1.80;99.90
11122;DHT22;5615;49.304;10.576;2023-04-03T02:14:57;1.80;99.90
11122;DHT22;5615;49.304;10.576;2023-04-03T02:17:24;1.80;99.90
11122;DHT22;5615;49.304;10.576;2023-04-03T02:19:50;1.80;99.90
11122;DHT22;5615;49.304;10.576;2023-04-03T02:22:17;1.90;99.90
11122;DHT22;5615;49.304;10.576;2023-04-03T02:24:45;1.90;99.90
11122;DHT22;5615;49.304;10.576;2023-04-03T02:27:12;1.80;99.90
11122;DHT22;5615;49.304;10.576;2023-04-03T02:29:39;1.80;99.90
11122;DHT22;5615;49.304;10.576;2023-04-03T02:32:05;1.70;99.90
11122;DHT22;5615;49.304;10.576;2023-04-03T02:34:33;1.70;99.90
11122;DHT22;5615;49.304;10.576;2023-04-03T02:37:00;1.70;99.90
11122;DHT22;5615;49.304;10.576;2023-04-03T02:39:27;1.70;99.90
11122;DHT22;5615;49.304;10.576;2023-04-03T02:41:55;1.60;99.90
11122;DHT22;5615;49.304;10.576;2023-04-03T02:44:21;1.70;99.90
11122;DHT22;5615;49.304;10.576;2023-04-03T02:46:48;1.60;99.90
11122;DHT22;5615;49.304;10.576;2023-04-03T02:49:15;1.60;99.90
11122;DHT22;5615;49.304;10.576;2023-04-03T02:51:42;1.60;99.90
11122;DHT22;5615;49.304;10.576;2023-04-03T02:54:08;1.60;99.90
11122;DHT22;5615;49.304;10.576;2023-04-03T02:56:35;1.60;99.90
11122;DHT22;5615;49.304;10.576;2023-04-03T02:59:03;1.50;99.90
11122;DHT22;5615;49.304;10.576;2023-04-03T03:01:30;1.40;99.90
11122;DHT22;5615;49.304;10.576;2023-04-03T03:03:58;1.40;99.90
11122;DHT22;5615;49.304;10.576;2023-04-03T03:06:25;1.40;99.90
11122;DHT22;5615;49.304;10.576;2023-04-03T03:08:52;1.40;99.90
11122;DHT22;5615;49.304;10.576;2023-04-03T03:11:18;1.40;99.90
11122;DHT22;5615;49.304;10.576;2023-04-03T03:13:45;1.30;99.90
11122;DHT22;5615;49.304;10.576;2023-04-03T03:16:13;1.20;99.90
11122;DHT22;5615;49.304;10.576;2023-04-03T03:18:39;1.20;99.90
11122;DHT22;5615;49.304;10.576;2023-04-03T03:21:06;1.20;99.90
11122;DHT22;5615;49.304;10.576;2023-04-03T03:23:33;1.10;99.90
11122;DHT22;5615;49.304;10.576;2023-04-03T03:26:02;1.10;99.90
11122;DHT22;5615;49.304;10.576;2023-04-03T03:28:29;1.10;99.90
11122;DHT22;5615;49.304;10.576;2023-04-03T03:30:56;1.00;99.90
11122;DHT22;5615;49.304;10.576;2023-04-03T03:33:24;0.80;99.90
11122;DHT22;5615;49.304;10.576;2023-04-03T03:35:51;0.80;99.90
11122;DHT22;5615;49.304;10.576;2023-04-03T03:38:18;0.70;99.90
11122;DHT22;5615;49.304;10.576;2023-04-03T03:40:46;0.60;99.90
11122;DHT22;5615;49.304;10.576;2023-04-03T03:43:12;0.60;99.90
11122;DHT22;5615;49.304;10.576;2023-04-03T03:45:39;0.60;99.90
11122;DHT22;5615;49.304;10.576;2023-04-03T03:48:06;0.60;99.90
11122;DHT22;5615;49.304;10.576;2023-04-03T03:50:34;0.60;99.90
11122;DHT22;5615;49.304;10.576;2023-04-03T03:53:00;0.50;99.90
11122;DHT22;5615;49.304;10.576;2023-04-03T03:55:27;0.40;99.90
11122;DHT22;5615;49.304;10.576;2023-04-03T03:57:54;0.30;99.90
11122;DHT22;5615;49.304;10.576;2023-04-03T04:00:20;0.20;99.90
11122;DHT22;5615;49.304;10.576;2023-04-03T04:02:47;0.20;99.90
11122;DHT22;5615;49.304;10.576;2023-04-03T04:05:14;0.20;99.90
11122;DHT22;5615;49.304;10.576;2023-04-03T04:07:42;0.10;99.90
11122;DHT22;5615;49.304;10.576;2023-04-03T04:10:09;0.10;99.90
11122;DHT22;5615;49.304;10.576;2023-04-03T04:12:35;0.10;99.90
11122;DHT22;5615;49.304;10.576;2023-04-03T04:15:02;0.10;99.90
11122;DHT22;5615;49.304;10.576;2023-04-03T04:17:29;0.20;99.90
11122;DHT22;5615;49.304;10.576;2023-04-03T04:19:56;0.20;99.90
11122;DHT22;5615;49.304;10.576;2023-04-03T04:22:22;0.20;99.90
11122;DHT22;5615;49.304;10.576;2023-04-03T04:24:50;0.20;99.90
11122;DHT22;5615;49.304;10.576;2023-04-03T04:27:17;0.20;99.90
11122;DHT22;5615;49.304;10.576;2023-04-03T04:29:43;0.20;99.90
11122;DHT22;5615;49.304;10.576;2023-04-03T04:32:10;0.30;99.90
11122;DHT22;5615;49.304;10.576;2023-04-03T04:34:36;0.30;99.90
11122;DHT22;5615;49.304;10.576;2023-04-03T04:37:03;0.30;99.90
11122;DHT22;5615;49.304;10.576;2023-04-03T04:39:30;0.40;99.90
11122;DHT22;5615;49.304;10.576;2023-04-03T04:41:58;0.30;99.90
11122;DHT22;5615;49.304;10.576;2023-04-03T04:44:24;0.30;99.90
11122;DHT22;5615;49.304;10.576;2023-04-03T04:46:52;0.30;99.90
11122;DHT22;5615;49.304;10.576;2023-04-03T04:49:19;0.30;99.90
11122;DHT22;5615;49.304;10.576;2023-04-03T04:51:45;0.40;99.90
11122;DHT22;5615;49.304;10.576;2023-04-03T04:54:12;0.30;99.90
11122;DHT22;5615;49.304;10.576;2023-04-03T04:56:38;0.50;99.90
11122;DHT22;5615;49.304;10.576;2023-04-03T04:59:07;0.40;99.90
11122;DHT22;5615;49.304;10.576;2023-04-03T05:01:33;0.50;99.90
11122;DHT22;5615;49.304;10.576;2023-04-03T05:04:01;0.50;99.90
11122;DHT22;5615;49.304;10.576;2023-04-03T05:06:27;0.60;99.90
11122;DHT22;5615;49.304;10.576;2023-04-03T05:08:55;0.70;99.90
11122;DHT22;5615;49.304;10.576;2023-04-03T05:11:22;0.70;99.90
11122;DHT22;5615;49.304;10.576;2023-04-03T05:13:49;0.80;99.90
11122;DHT22;5615;49.304;10.576;2023-04-03T05:16:17;0.80;99.90
11122;DHT22;5615;49.304;10.576;2023-04-03T05:18:43;0.90;99.90
11122;DHT22;5615;49.304;10.576;2023-04-03T05:21:10;0.90;99.90
11122;DHT22;5615;49.304;10.576;2023-04-03T05:23:37;0.90;99.90
11122;DHT22;5615;49.304;10.576;2023-04-03T05:26:03;1.00;99.90
11122;DHT22;5615;49.304;10.576;2023-04-03T05:28:31;1.00;99.90
11122;DHT22;5615;49.304;10.576;2023-04-03T05:30:58;1.10;99.90
11122;DHT22;5615;49.304;10.576;2023-04-03T05:33:26;1.10;99.90
11122;DHT22;5615;49.304;10.576;2023-04-03T05:35:53;1.10;99.90
11122;DHT22;5615;49.304;10.576;2023-04-03T05:38:20;1.20;99.90
11122;DHT22;5615;49.304;10.576;2023-04-03T05:40:47;1.30;99.90
11122;DHT22;5615;49.304;10.576;2023-04-03T05:43:14;1.30;99.90
11122;DHT22;5615;49.304;10.576;2023-04-03T05:45:41;1.40;99.90
11122;DHT22;5615;49.304;10.576;2023-04-03T05:48:07;1.40;99.90
11122;DHT22;5615;49.304;10.576;2023-04-03T05:50:35;1.50;99.90
11122;DHT22;5615;49.304;10.576;2023-04-03T05:53:07;1.60;99.90
11122;DHT22;5615;49.304;10.576;2023-04-03T05:55:36;1.70;99.90
11122;DHT22;5615;49.304;10.576;2023-04-03T05:58:03;1.70;99.90
11122;DHT22;5615;49.304;10.576;2023-04-03T06:00:30;1.90;99.90
11122;DHT22;5615;49.304;10.576;2023-04-03T06:02:57;1.90;99.90
11122;DHT22;5615;49.304;10.576;2023-04-03T06:05:23;1.90;99.90
11122;DHT22;5615;49.304;10.576;2023-04-03T06:07:51;2.00;99.90
11122;DHT22;5615;49.304;10.576;2023-04-03T06:10:18;2.00;99.90
11122;DHT22;5615;49.304;10.576;2023-04-03T06:12:45;2.10;99.90
11122;DHT22;5615;49.304;10.576;2023-04-03T06:15:12;2.10;99.90
11122;DHT22;5615;49.304;10.576;2023-04-03T06:17:38;2.10;99.90
11122;DHT22;5615;49.304;10.576;2023-04-03T06:20:06;2.20;99.90
11122;DHT22;5615;49.304;10.576;2023-04-03T06:22:33;2.20;99.90
11122;DHT22;5615;49.304;10.576;2023-04-03T06:25:01;2.30;99.90
11122;DHT22;5615;49.304;10.576;2023-04-03T06:27:27;2.40;99.90
11122;DHT22;5615;49.304;10.576;2023-04-03T06:29:54;2.50;99.90
11122;DHT22;5615;49.304;10.576;2023-04-03T06:32:21;2.60;99.90
11122;DHT22;5615;49.304;10.576;2023-04-03T06:34:47;2.60;99.90
11122;DHT22;5615;49.304;10.576;2023-04-03T06:37:15;2.60;99.90
11122;DHT22;5615;49.304;10.576;2023-04-03T06:39:43;2.70;99.90
11122;DHT22;5615;49.304;10.576;2023-04-03T06:42:11;2.60;99.90
11122;DHT22;5615;49.304;10.576;2023-04-03T06:44:38;2.80;99.90
11122;DHT22;5615;49.304;10.576;2023-04-03T06:47:05;2.90;99.90
11122;DHT22;5615;49.304;10.576;2023-04-03T06:49:31;2.90;99.90
11122;DHT22;5615;49.304;10.576;2023-04-03T06:51:58;3.00;99.90
11122;DHT22;5615;49.304;10.576;2023-04-03T06:54:25;3.00;99.90
11122;DHT22;5615;49.304;10.576;2023-04-03T06:56:52;3.10;99.90
11122;DHT22;5615;49.304;10.576;2023-04-03T06:59:19;3.00;99.90
11122;DHT22;5615;49.304;10.576;2023-04-03T07:01:46;3.10;99.90
11122;DHT22;5615;49.304;10.576;2023-04-03T07:04:13;3.30;99.90
11122;DHT22;5615;49.304;10.576;2023-04-03T07:06:40;3.40;99.90
11122;DHT22;5615;49.304;10.576;2023-04-03T07:09:07;3.40;99.90
11122;DHT22;5615;49.304;10.576;2023-04-03T07:11:34;3.50;99.90
11122;DHT22;5615;49.304;10.576;2023-04-03T07:14:01;3.50;99.90
11122;DHT22;5615;49.304;10.576;2023-04-03T07:16:29;3.60;99.90
11122;DHT22;5615;49.304;10.576;2023-04-03T07:18:57;3.60;99.90
11122;DHT22;5615;49.304;10.576;2023-04-03T07:21:23;3.50;99.90
11122;DHT22;5615;49.304;10.576;2023-04-03T07:23:50;3.60;99.90
11122;DHT22;5615;49.304;10.576;2023-04-03T07:26:17;3.70;99.90
11122;DHT22;5615;49.304;10.576;2023-04-03T07:28:43;3.80;99.90
11122;DHT22;5615;49.304;10.576;2023-04-03T07:31:13;3.70;99.90
11122;DHT22;5615;49.304;10.576;2023-04-03T07:33:42;3.90;99.90
11122;DHT22;5615;49.304;10.576;2023-04-03T07:36:11;4.20;99.90
11122;DHT22;5615;49.304;10.576;2023-04-03T07:38:40;4.30;99.90
11122;DHT22;5615;49.304;10.576;2023-04-03T07:41:11;4.20;99.90
11122;DHT22;5615;49.304;10.576;2023-04-03T07:43:38;4.30;99.90
11122;DHT22;5615;49.304;10.576;2023-04-03T07:46:05;4.30;99.90
11122;DHT22;5615;49.304;10.576;2023-04-03T07:48:31;4.30;99.90
11122;DHT22;5615;49.304;10.576;2023-04-03T07:51:01;4.50;99.90
11122;DHT22;5615;49.304;10.576;2023-04-03T07:53:28;4.40;99.90
11122;DHT22;5615;49.304;10.576;2023-04-03T07:55:56;4.40;99.90
11122;DHT22;5615;49.304;10.576;2023-04-03T07:58:23;4.50;99.90
11122;DHT22;5615;49.304;10.576;2023-04-03T08:00:51;4.80;99.90
11122;DHT22;5615;49.304;10.576;2023-04-03T08:03:17;5.10;99.90
11122;DHT22;5615;49.304;10.576;2023-04-03T08:05:45;5.30;99.90
11122;DHT22;5615;49.304;10.576;2023-04-03T08:08:15;5.30;99.90
11122;DHT22;5615;49.304;10.576;2023-04-03T08:10:43;5.40;99.90
11122;DHT22;5615;49.304;10.576;2023-04-03T08:13:10;5.40;99.90
11122;DHT22;5615;49.304;10.576;2023-04-03T08:15:36;5.40;99.90
11122;DHT22;5615;49.304;10.576;2023-04-03T08:18:03;5.30;99.90
11122;DHT22;5615;49.304;10.576;2023-04-03T08:20:30;5.50;99.90
11122;DHT22;5615;49.304;10.576;2023-04-03T08:22:56;5.70;99.90
11122;DHT22;5615;49.304;10.576;2023-04-03T08:25:24;5.80;99.90
11122;DHT22;5615;49.304;10.576;2023-04-03T08:27:51;6.00;99.90
11122;DHT22;5615;49.304;10.576;2023-04-03T08:30:18;6.00;99.90
11122;DHT22;5615;49.304;10.576;2023-04-03T08:32:45;6.10;99.90
11122;DHT22;5615;49.304;10.576;2023-04-03T08:35:11;6.10;99.90
11122;DHT22;5615;49.304;10.576;2023-04-03T08:37:39;6.30;99.90
11122;DHT22;5615;49.304;10.576;2023-04-03T08:40:10;6.50;99.90
11122;DHT22;5615;49.304;10.576;2023-04-03T08:42:48;6.50;99.90
11122;DHT22;5615;49.304;10.576;2023-04-03T08:45:21;6.60;99.90
11122;DHT22;5615;49.304;10.576;2023-04-03T08:47:55;6.80;99.90
11122;DHT22;5615;49.304;10.576;2023-04-03T08:50:29;6.90;99.90
11122;DHT22;5615;49.304;10.576;2023-04-03T08:52:58;7.00;99.90
11122;DHT22;5615;49.304;10.576;2023-04-03T08:55:28;7.10;99.90
11122;DHT22;5615;49.304;10.576;2023-04-03T08:58:01;7.00;99.90
11122;DHT22;5615;49.304;10.576;2023-04-03T09:00:30;7.20;99.90
11122;DHT22;5615;49.304;10.576;2023-04-03T09:02:58;7.10;99.90
11122;DHT22;5615;49.304;10.576;2023-04-03T09:05:34;7.20;99.90
11122;DHT22;5615;49.304;10.576;2023-04-03T09:08:06;7.00;99.90
11122;DHT22;5615;49.304;10.576;2023-04-03T09:10:35;6.80;99.90
11122;DHT22;5615;49.304;10.576;2023-04-03T09:13:08;7.30;99.90
11122;DHT22;5615;49.304;10.576;2023-04-03T09:15:37;7.40;99.90
11122;DHT22;5615;49.304;10.576;2023-04-03T09:18:05;7.60;99.90
11122;DHT22;5615;49.304;10.576;2023-04-03T09:20:45;7.40;99.90
11122;DHT22;5615;49.304;10.576;2023-04-03T09:23:22;7.30;99.90
11122;DHT22;5615;49.304;10.576;2023-04-03T09:25:54;7.60;99.90
11122;DHT22;5615;49.304;10.576;2023-04-03T09:28:24;7.90;99.90
11122;DHT22;5615;49.304;10.576;2023-04-03T09:30:51;7.80;99.90
11122;DHT22;5615;49.304;10.576;2023-04-03T09:33:18;7.60;99.90
11122;DHT22;5615;49.304;10.576;2023-04-03T09:35:47;7.90;99.90
11122;DHT22;5615;49.304;10.576;2023-04-03T09:38:17;7.90;99.90
11122;DHT22;5615;49.304;10.576;2023-04-03T09:40:46;7.70;99.90
11122;DHT22;5615;49.304;10.576;2023-04-03T09:43:27;8.00;99.90
11122;DHT22;5615;49.304;10.576;2023-04-03T09:45:55;8.30;99.90
11122;DHT22;5615;49.304;10.576;2023-04-03T09:48:24;8.40;99.90
11122;DHT22;5615;49.304;10.576;2023-04-03T09:50:59;8.60;99.90
11122;DHT22;5615;49.304;10.576;2023-04-03T09:53:30;8.40;99.90
11122;DHT22;5615;49.304;10.576;2023-04-03T09:55:58;8.30;99.90
11122;DHT22;5615;49.304;10.576;2023-04-03T09:58:28;8.20;99.90
11122;DHT22;5615;49.304;10.576;2023-04-03T10:00:57;7.90;99.70
11122;DHT22;5615;49.304;10.576;2023-04-03T10:03:28;7.70;96.80
11122;DHT22;5615;49.304;10.576;2023-04-03T10:05:55;7.80;97.40
11122;DHT22;5615;49.304;10.576;2023-04-03T10:08:25;7.70;96.00
11122;DHT22;5615;49.304;10.576;2023-04-03T10:11:10;7.80;95.50
11122;DHT22;5615;49.304;10.576;2023-04-03T10:13:50;7.90;94.00
11122;DHT22;5615;49.304;10.576;2023-04-03T10:16:18;7.90;93.70
11122;DHT22;5615;49.304;10.576;2023-04-03T10:18:52;8.00;92.10
11122;DHT22;5615;49.304;10.576;2023-04-03T10:21:33;8.20;91.50
11122;DHT22;5615;49.304;10.576;2023-04-03T10:24:08;8.50;88.60
11122;DHT22;5615;49.304;10.576;2023-04-03T10:26:42;8.40;85.30
11122;DHT22;5615;49.304;10.576;2023-04-03T10:29:21;8.60;88.70
11122;DHT22;5615;49.304;10.576;2023-04-03T10:31:55;8.80;86.90
11122;DHT22;5615;49.304;10.576;2023-04-03T10:34:27;8.90;87.10
11122;DHT22;5615;49.304;10.576;2023-04-03T10:37:01;9.30;86.40
11122;DHT22;5615;49.304;10.576;2023-04-03T10:39:36;9.70;82.10
11122;DHT22;5615;49.304;10.576;2023-04-03T10:42:08;9.50;81.00
11122;DHT22;5615;49.304;10.576;2023-04-03T10:44:50;9.70;77.60
11122;DHT22;5615;49.304;10.576;2023-04-03T10:47:21;10.00;78.90
11122;DHT22;5615;49.304;10.576;2023-04-03T10:49:58;10.10;73.80
11122;DHT22;5615;49.304;10.576;2023-04-03T10:52:33;10.00;73.70
11122;DHT22;5615;49.304;10.576;2023-04-03T10:55:27;9.70;71.60
11122;DHT22;5615;49.304;10.576;2023-04-03T10:57:58;9.20;73.60
11122;DHT22;5615;49.304;10.576;2023-04-03T11:00:33;9.70;73.00
11122;DHT22;5615;49.304;10.576;2023-04-03T11:03:05;9.80;72.80
11122;DHT22;5615;49.304;10.576;2023-04-03T11:05:37;10.00;74.70
11122;DHT22;5615;49.304;10.576;2023-04-03T11:08:12;9.90;74.40
11122;DHT22;5615;49.304;10.576;2023-04-03T11:10:43;9.40;70.70
11122;DHT22;5615;49.304;10.576;2023-04-03T11:13:13;9.40;72.00
11122;DHT22;5615;49.304;10.576;2023-04-03T11:15:43;9.30;70.50
11122;DHT22;5615;49.304;10.576;2023-04-03T11:18:13;9.60;72.60
11122;DHT22;5615;49.304;10.576;2023-04-03T11:20:44;10.20;69.50
11122;DHT22;5615;49.304;10.576;2023-04-03T11:23:19;10.40;69.80
11122;DHT22;5615;49.304;10.576;2023-04-03T11:25:50;10.50;68.90
11122;DHT22;5615;49.304;10.576;2023-04-03T11:28:17;12.00;65.50
11122;DHT22;5615;49.304;10.576;2023-04-03T11:30:48;13.20;64.90
11122;DHT22;5615;49.304;10.576;2023-04-03T11:33:35;15.00;54.00
11122;DHT22;5615;49.304;10.576;2023-04-03T11:36:07;15.50;47.60
11122;DHT22;5615;49.304;10.576;2023-04-03T11:38:36;14.80;45.70
11122;DHT22;5615;49.304;10.576;2023-04-03T11:41:07;14.30;45.30
11122;DHT22;5615;49.304;10.576;2023-04-03T11:43:40;14.40;45.40
11122;DHT22;5615;49.304;10.576;2023-04-03T11:46:08;14.00;43.60
11122;DHT22;5615;49.304;10.576;2023-04-03T11:48:44;13.80;43.00
11122;DHT22;5615;49.304;10.576;2023-04-03T11:51:44;13.50;41.70
11122;DHT22;5615;49.304;10.576;2023-04-03T11:57:46;15.20;39.60
11122;DHT22;5615;49.304;10.576;2023-04-03T12:00:48;15.50;35.10
11122;DHT22;5615;49.304;10.576;2023-04-03T12:09:26;14.20;34.30
11122;DHT22;5615;49.304;10.576;2023-04-03T12:11:54;16.20;35.70
11122;DHT22;5615;49.304;10.576;2023-04-03T12:14:23;15.90;35.10
11122;DHT22;5615;49.304;10.576;2023-04-03T12:16:52;15.50;33.30
11122;DHT22;5615;49.304;10.576;2023-04-03T12:19:31;13.90;34.60
11122;DHT22;5615;49.304;10.576;2023-04-03T12:22:13;12.30;37.30
11122;DHT22;5615;49.304;10.576;2023-04-03T12:24:40;11.80;37.90
11122;DHT22;5615;49.304;10.576;2023-04-03T12:27:33;11.60;38.90
11122;DHT22;5615;49.304;10.576;2023-04-03T12:30:17;11.40;39.80
11122;DHT22;5615;49.304;10.576;2023-04-03T12:35:43;16.30;35.30
11122;DHT22;5615;49.304;10.576;2023-04-03T12:38:35;15.50;33.80
11122;DHT22;5615;49.304;10.576;2023-04-03T12:41:21;14.60;33.80
11122;DHT22;5615;49.304;10.576;2023-04-03T12:44:00;13.90;33.60
11122;DHT22;5615;49.304;10.576;2023-04-03T12:46:36;12.70;34.20
11122;DHT22;5615;49.304;10.576;2023-04-03T12:49:14;12.50;34.90
11122;DHT22;5615;49.304;10.576;2023-04-03T12:51:46;14.80;34.00
11122;DHT22;5615;49.304;10.576;2023-04-03T12:54:15;17.20;32.40
11122;DHT22;5615;49.304;10.576;2023-04-03T12:56:42;17.20;30.40
11122;DHT22;5615;49.304;10.576;2023-04-03T12:59:16;16.00;29.80
11122;DHT22;5615;49.304;10.576;2023-04-03T13:01:53;14.90;30.90
11122;DHT22;5615;49.304;10.576;2023-04-03T13:04:20;13.30;31.90
11122;DHT22;5615;49.304;10.576;2023-04-03T13:06:49;12.40;32.20
11122;DHT22;5615;49.304;10.576;2023-04-03T13:09:21;11.60;33.20
11122;DHT22;5615;49.304;10.576;2023-04-03T13:11:50;11.70;34.50
11122;DHT22;5615;49.304;10.576;2023-04-03T13:14:19;13.60;34.80
11122;DHT22;5615;49.304;10.576;2023-04-03T13:16:54;14.70;32.50
11122;DHT22;5615;49.304;10.576;2023-04-03T13:19:23;14.60;30.80
11122;DHT22;5615;49.304;10.576;2023-04-03T13:21:56;15.40;31.90
11122;DHT22;5615;49.304;10.576;2023-04-03T13:24:25;14.60;29.90
11122;DHT22;5615;49.304;10.576;2023-04-03T13:26:52;14.80;29.30
11122;DHT22;5615;49.304;10.576;2023-04-03T13:29:23;17.40;30.90
11122;DHT22;5615;49.304;10.576;2023-04-03T13:31:53;19.70;27.50
11122;DHT22;5615;49.304;10.576;2023-04-03T13:34:22;18.50;25.40
11122;DHT22;5615;49.304;10.576;2023-04-03T13:36:58;19.00;25.40
11122;DHT22;5615;49.304;10.576;2023-04-03T13:39:27;20.40;24.80
11122;DHT22;5615;49.304;10.576;2023-04-03T13:41:55;20.50;23.40
11122;DHT22;5615;49.304;10.576;2023-04-03T13:44:33;15.20;24.70
11122;DHT22;5615;49.304;10.576;2023-04-03T13:47:14;14.30;26.40
11122;DHT22;5615;49.304;10.576;2023-04-03T13:49:42;13.60;27.20
11122;DHT22;5615;49.304;10.576;2023-04-03T13:52:24;12.40;28.70
11122;DHT22;5615;49.304;10.576;2023-04-03T13:54:55;11.80;28.90
11122;DHT22;5615;49.304;10.576;2023-04-03T13:57:25;12.40;30.30
11122;DHT22;5615;49.304;10.576;2023-04-03T13:59:55;14.70;28.60
11122;DHT22;5615;49.304;10.576;2023-04-03T14:02:28;14.70;27.50
11122;DHT22;5615;49.304;10.576;2023-04-03T14:04:57;15.40;26.70
11122;DHT22;5615;49.304;10.576;2023-04-03T14:07:28;14.70;26.50
11122;DHT22;5615;49.304;10.576;2023-04-03T14:09:56;17.50;27.20
11122;DHT22;5615;49.304;10.576;2023-04-03T14:12:26;20.00;24.80
11122;DHT22;5615;49.304;10.576;2023-04-03T14:14:53;21.70;22.80
11122;DHT22;5615;49.304;10.576;2023-04-03T14:17:23;23.20;21.60
11122;DHT22;5615;49.304;10.576;2023-04-03T14:19:51;25.10;19.80
11122;DHT22;5615;49.304;10.576;2023-04-03T14:22:21;23.80;16.20
11122;DHT22;5615;49.304;10.576;2023-04-03T14:24:50;20.70;17.40
11122;DHT22;5615;49.304;10.576;2023-04-03T14:27:20;18.70;19.10
11122;DHT22;5615;49.304;10.576;2023-04-03T14:29:47;16.80;19.60
11122;DHT22;5615;49.304;10.576;2023-04-03T14:32:20;15.50;21.00
11122;DHT22;5615;49.304;10.576;2023-04-03T14:34:48;18.50;21.40
11122;DHT22;5615;49.304;10.576;2023-04-03T14:37:17;21.50;19.70
11122;DHT22;5615;49.304;10.576;2023-04-03T14:39:45;22.80;17.60
11122;DHT22;5615;49.304;10.576;2023-04-03T14:42:15;24.20;16.80
11122;DHT22;5615;49.304;10.576;2023-04-03T14:44:42;24.90;14.70
11122;DHT22;5615;49.304;10.576;2023-04-03T14:47:11;25.30;15.20
11122;DHT22;5615;49.304;10.576;2023-04-03T14:49:38;22.00;15.10
11122;DHT22;5615;49.304;10.576;2023-04-03T14:52:05;19.80;15.90
11122;DHT22;5615;49.304;10.576;2023-04-03T14:54:31;16.70;17.20
11122;DHT22;5615;49.304;10.576;2023-04-03T14:56:59;15.40;18.80
11122;DHT22;5615;49.304;10.576;2023-04-03T14:59:28;14.30;19.30
11122;DHT22;5615;49.304;10.576;2023-04-03T15:01:56;14.40;21.10
11122;DHT22;5615;49.304;10.576;2023-04-03T15:04:22;19.20;19.80
11122;DHT22;5615;49.304;10.576;2023-04-03T15:06:52;21.50;17.90
11122;DHT22;5615;49.304;10.576;2023-04-03T15:09:20;23.30;16.30
11122;DHT22;5615;49.304;10.576;2023-04-03T15:11:48;18.90;17.60
11122;DHT22;5615;49.304;10.576;2023-04-03T15:14:15;21.00;16.90
11122;DHT22;5615;49.304;10.576;2023-04-03T15:16:43;17.50;17.20
11122;DHT22;5615;49.304;10.576;2023-04-03T15:19:10;15.40;18.90
11122;DHT22;5615;49.304;10.576;2023-04-03T15:21:37;13.60;20.60
11122;DHT22;5615;49.304;10.576;2023-04-03T15:24:04;12.50;22.50
11122;DHT22;5615;49.304;10.576;2023-04-03T15:26:31;17.60;20.50
11122;DHT22;5615;49.304;10.576;2023-04-03T15:28:58;19.80;18.70
11122;DHT22;5615;49.304;10.576;2023-04-03T15:31:25;20.50;17.40
11122;DHT22;5615;49.304;10.576;2023-04-03T15:33:53;20.20;16.20
11122;DHT22;5615;49.304;10.576;2023-04-03T15:36:19;19.00;17.00
11122;DHT22;5615;49.304;10.576;2023-04-03T15:38:46;20.70;16.40
11122;DHT22;5615;49.304;10.576;2023-04-03T15:41:13;21.70;16.20
11122;DHT22;5615;49.304;10.576;2023-04-03T15:43:39;21.20;15.00
11122;DHT22;5615;49.304;10.576;2023-04-03T15:46:06;21.60;15.50
11122;DHT22;5615;49.304;10.576;2023-04-03T15:48:32;21.30;15.30
11122;DHT22;5615;49.304;10.576;2023-04-03T15:51:01;16.30;17.30
11122;DHT22;5615;49.304;10.576;2023-04-03T15:53:27;18.80;16.80
11122;DHT22;5615;49.304;10.576;2023-04-03T15:55:54;20.00;15.80
11122;DHT22;5615;49.304;10.576;2023-04-03T15:58:20;16.60;16.40
11122;DHT22;5615;49.304;10.576;2023-04-03T16:00:47;14.90;18.60
11122;DHT22;5615;49.304;10.576;2023-04-03T16:03:16;13.40;19.80
11122;DHT22;5615;49.304;10.576;2023-04-03T16:05:43;15.80;19.80
11122;DHT22;5615;49.304;10.576;2023-04-03T16:08:12;17.80;18.30